createdAt,value
2017-02-21T00:00:00.070Z,19.95
2017-02-21T00:00:40.721Z,19.93
2017-02-21T00:01:21.363Z,20
2017-02-21T00:02:01.998Z,19.94
2017-02-21T00:02:42.633Z,20
2017-02-21T00:03:23.316Z,20
2017-02-21T00:04:03.959Z,20.03
2017-02-21T00:04:44.674Z,19.95
2017-02-21T00:05:25.342Z,20.08
2017-02-21T00:06:05.978Z,19.98
2017-02-21T00:06:46.609Z,19.93
2017-02-21T00:07:27.264Z,19.93
2017-02-21T00:08:07.993Z,19.95
2017-02-21T00:08:48.642Z,20.02
2017-02-21T00:09:29.297Z,19.95
2017-02-21T00:10:10.004Z,19.93
2017-02-21T00:10:50.658Z,20.02
2017-02-21T00:11:31.353Z,19.93
2017-02-21T00:12:12.031Z,20.03
2017-02-21T00:12:52.665Z,19.93
2017-02-21T00:13:33.312Z,19.94
2017-02-21T00:14:14.012Z,19.93
2017-02-21T00:14:54.676Z,19.91
2017-02-21T00:15:35.317Z,19.94
2017-02-21T00:16:15.948Z,19.94
2017-02-21T00:16:56.598Z,19.91
2017-02-21T00:17:37.239Z,19.9
2017-02-21T00:18:17.915Z,19.95
2017-02-21T00:18:58.548Z,19.98
2017-02-21T00:19:39.188Z,19.97
2017-02-21T00:20:19.878Z,19.93
2017-02-21T00:21:00.601Z,19.9
2017-02-21T00:21:41.253Z,19.93
2017-02-21T00:22:21.897Z,19.88
2017-02-21T00:23:02.529Z,19.86
2017-02-21T00:23:43.163Z,19.86
2017-02-21T00:24:23.813Z,19.91
2017-02-21T00:25:04.474Z,19.95
2017-02-21T00:25:45.123Z,19.87
2017-02-21T00:26:25.784Z,19.94
2017-02-21T00:27:06.465Z,19.91
2017-02-21T00:27:47.098Z,19.94
2017-02-21T00:28:27.733Z,19.91
2017-02-21T00:29:08.476Z,19.93
2017-02-21T00:29:49.107Z,19.87
2017-02-21T00:30:29.734Z,19.88
2017-02-21T00:31:10.420Z,19.76
2017-02-21T00:31:51.090Z,19.93
2017-02-21T00:32:31.743Z,19.97
2017-02-21T00:33:12.405Z,19.86
2017-02-21T00:33:53.126Z,19.95
2017-02-21T00:34:33.768Z,19.97
2017-02-21T00:35:14.421Z,19.98
2017-02-21T00:35:55.138Z,19.98
2017-02-21T00:36:35.769Z,19.95
2017-02-21T00:37:16.391Z,19.98
2017-02-21T00:37:57.033Z,19.91
2017-02-21T00:38:37.703Z,19.83
2017-02-21T00:39:18.362Z,19.91
2017-02-21T00:39:59.015Z,19.83
2017-02-21T00:40:39.645Z,19.93
2017-02-21T00:41:20.318Z,19.95
2017-02-21T00:42:01.007Z,19.91
2017-02-21T00:42:41.721Z,19.97
2017-02-21T00:43:22.353Z,19.93
2017-02-21T00:44:02.986Z,19.84
2017-02-21T00:44:43.712Z,19.94
2017-02-21T00:45:24.356Z,19.94
2017-02-21T00:46:05.081Z,19.94
2017-02-21T00:46:45.734Z,19.97
2017-02-21T00:47:26.457Z,19.95
2017-02-21T00:48:07.046Z,19.93
2017-02-21T00:48:47.688Z,19.9
2017-02-21T00:49:28.401Z,19.98
2017-02-21T00:50:09.043Z,19.93
2017-02-21T00:50:49.687Z,19.86
2017-02-21T00:51:30.370Z,19.78
2017-02-21T00:52:11.002Z,19.91
2017-02-21T00:52:51.639Z,19.87
2017-02-21T00:53:32.297Z,19.79
2017-02-21T00:54:12.921Z,19.91
2017-02-21T00:54:53.556Z,19.93
2017-02-21T00:55:34.182Z,19.93
2017-02-21T00:56:14.810Z,19.83
2017-02-21T00:56:55.467Z,19.84
2017-02-21T00:57:36.099Z,19.75
2017-02-21T00:58:16.736Z,19.83
2017-02-21T00:58:58.318Z,19.76
2017-02-21T00:59:38.949Z,19.84
2017-02-21T01:00:19.576Z,19.86
2017-02-21T01:01:00.292Z,19.83
2017-02-21T01:01:40.920Z,19.9
2017-02-21T01:02:21.558Z,19.86
2017-02-21T01:03:02.307Z,19.83
2017-02-21T01:03:42.971Z,19.83
2017-02-21T01:04:23.606Z,19.78
2017-02-21T01:05:04.249Z,19.8
2017-02-21T01:05:44.935Z,19.78
2017-02-21T01:06:25.572Z,19.84
2017-02-21T01:07:06.197Z,19.93
2017-02-21T01:07:46.860Z,19.73
2017-02-21T01:08:27.488Z,19.78
2017-02-21T01:09:08.185Z,19.78
2017-02-21T01:09:48.852Z,19.79
2017-02-21T01:10:29.487Z,19.78
2017-02-21T01:11:10.114Z,19.78
2017-02-21T01:11:50.781Z,19.93
2017-02-21T01:12:31.412Z,19.83
2017-02-21T01:13:12.070Z,19.84
2017-02-21T01:13:52.763Z,19.8
2017-02-21T01:14:33.392Z,19.86
2017-02-21T01:15:14.021Z,19.79
2017-02-21T01:15:54.672Z,19.86
2017-02-21T01:16:35.316Z,19.86
2017-02-21T01:17:15.943Z,19.84
2017-02-21T01:17:56.597Z,19.79
2017-02-21T01:18:37.231Z,19.79
2017-02-21T01:19:17.862Z,19.76
2017-02-21T01:19:58.527Z,19.78
2017-02-21T01:20:39.268Z,19.79
2017-02-21T01:21:19.919Z,19.76
2017-02-21T01:22:00.551Z,19.78
2017-02-21T01:22:41.281Z,19.7
2017-02-21T01:23:21.911Z,19.76
2017-02-21T01:24:02.568Z,19.78
2017-02-21T01:24:43.275Z,19.83
2017-02-21T01:25:23.914Z,19.73
2017-02-21T01:26:04.556Z,19.78
2017-02-21T01:26:45.182Z,19.78
2017-02-21T01:27:25.851Z,19.68
2017-02-21T01:28:06.469Z,19.76
2017-02-21T01:28:47.105Z,19.78
2017-02-21T01:29:27.732Z,19.75
2017-02-21T01:30:08.388Z,19.76
2017-02-21T01:30:49.083Z,19.76
2017-02-21T01:31:29.721Z,19.76
2017-02-21T01:32:10.346Z,19.79
2017-02-21T01:32:51.046Z,19.72
2017-02-21T01:33:31.778Z,19.83
2017-02-21T01:34:12.409Z,19.69
2017-02-21T01:34:53.064Z,19.7
2017-02-21T01:35:33.718Z,19.73
2017-02-21T01:36:14.347Z,19.72
2017-02-21T01:36:55.001Z,19.73
2017-02-21T01:37:35.707Z,19.75
2017-02-21T01:38:16.335Z,19.76
2017-02-21T01:38:57.014Z,19.72
2017-02-21T01:39:37.670Z,19.79
2017-02-21T01:40:18.298Z,19.8
2017-02-21T01:40:58.946Z,19.76
2017-02-21T01:41:39.597Z,19.8
2017-02-21T01:42:20.242Z,19.8
2017-02-21T01:43:00.892Z,19.79
2017-02-21T01:43:41.600Z,19.86
2017-02-21T01:44:22.230Z,19.88
2017-02-21T01:45:02.901Z,19.8
2017-02-21T01:45:43.548Z,19.79
2017-02-21T01:46:24.180Z,19.8
2017-02-21T01:47:04.807Z,19.79
2017-02-21T01:47:45.489Z,19.86
2017-02-21T01:48:26.127Z,19.79
2017-02-21T01:49:06.772Z,19.8
2017-02-21T01:49:47.474Z,19.78
2017-02-21T01:50:28.098Z,19.72
2017-02-21T01:51:08.750Z,19.68
2017-02-21T01:51:49.390Z,19.78
2017-02-21T01:52:30.027Z,19.78
2017-02-21T01:53:10.668Z,19.73
2017-02-21T01:53:51.363Z,19.68
2017-02-21T01:54:32.074Z,19.75
2017-02-21T01:55:12.711Z,19.73
2017-02-21T01:55:53.383Z,19.72
2017-02-21T01:56:34.033Z,19.72
2017-02-21T01:57:14.662Z,19.75
2017-02-21T01:57:55.296Z,19.76
2017-02-21T01:58:35.973Z,19.75
2017-02-21T01:59:16.609Z,19.72
2017-02-21T01:59:57.273Z,19.69
2017-02-21T02:00:37.956Z,19.75
2017-02-21T02:01:18.584Z,19.72
2017-02-21T02:01:59.211Z,19.73
2017-02-21T02:02:39.915Z,19.7
2017-02-21T02:03:20.541Z,19.68
2017-02-21T02:04:01.174Z,19.73
2017-02-21T02:04:41.807Z,19.73
2017-02-21T02:05:22.436Z,19.69
2017-02-21T02:06:03.056Z,19.69
2017-02-21T02:06:43.705Z,19.69
2017-02-21T02:07:24.342Z,19.72
2017-02-21T02:08:04.975Z,19.72
2017-02-21T02:08:45.678Z,19.72
2017-02-21T02:09:26.331Z,19.79
2017-02-21T02:10:06.978Z,19.72
2017-02-21T02:10:47.696Z,19.73
2017-02-21T02:11:28.323Z,19.73
2017-02-21T02:12:08.969Z,19.7
2017-02-21T02:12:49.707Z,19.66
2017-02-21T02:13:30.399Z,19.68
2017-02-21T02:14:11.030Z,19.68
2017-02-21T02:14:51.664Z,19.7
2017-02-21T02:15:32.289Z,19.72
2017-02-21T02:16:12.923Z,19.69
2017-02-21T02:16:53.581Z,19.72
2017-02-21T02:17:34.241Z,19.73
2017-02-21T02:18:14.869Z,19.73
2017-02-21T02:18:55.527Z,19.68
2017-02-21T02:19:36.249Z,19.69
2017-02-21T02:20:17.001Z,19.75
2017-02-21T02:20:57.654Z,19.72
2017-02-21T02:21:38.289Z,19.6
2017-02-21T02:22:18.919Z,19.7
2017-02-21T02:22:59.558Z,19.7
2017-02-21T02:23:40.253Z,19.73
2017-02-21T02:24:20.951Z,19.7
2017-02-21T02:25:01.580Z,19.63
2017-02-21T02:25:42.321Z,19.58
2017-02-21T02:26:22.962Z,19.65
2017-02-21T02:27:03.585Z,19.7
2017-02-21T02:27:44.279Z,19.65
2017-02-21T02:28:24.934Z,19.66
2017-02-21T02:29:05.684Z,19.66
2017-02-21T02:29:46.336Z,19.7
2017-02-21T02:30:26.963Z,19.72
2017-02-21T02:31:07.676Z,19.68
2017-02-21T02:31:48.306Z,19.68
2017-02-21T02:32:28.948Z,19.75
2017-02-21T02:33:09.593Z,19.68
2017-02-21T02:33:50.227Z,19.66
2017-02-21T02:34:30.861Z,19.75
2017-02-21T02:35:11.532Z,19.65
2017-02-21T02:35:52.167Z,19.72
2017-02-21T02:36:32.818Z,19.7
2017-02-21T02:37:13.493Z,19.61
2017-02-21T02:37:54.125Z,19.68
2017-02-21T02:38:34.865Z,19.72
2017-02-21T02:39:15.590Z,19.66
2017-02-21T02:39:56.226Z,19.66
2017-02-21T02:40:36.853Z,19.73
2017-02-21T02:41:17.511Z,19.7
2017-02-21T02:41:58.147Z,19.6
2017-02-21T02:42:38.770Z,19.68
2017-02-21T02:43:19.434Z,19.69
2017-02-21T02:44:00.065Z,19.57
2017-02-21T02:44:40.696Z,19.65
2017-02-21T02:45:21.363Z,19.68
2017-02-21T02:46:02.013Z,19.72
2017-02-21T02:46:42.648Z,19.66
2017-02-21T02:47:23.323Z,19.6
2017-02-21T02:48:03.961Z,19.63
2017-02-21T02:48:44.616Z,19.63
2017-02-21T02:49:25.269Z,19.73
2017-02-21T02:50:05.971Z,19.68
2017-02-21T02:50:46.601Z,19.65
2017-02-21T02:51:27.229Z,19.66
2017-02-21T02:52:07.887Z,19.57
2017-02-21T02:52:48.536Z,19.68
2017-02-21T02:53:29.300Z,19.65
2017-02-21T02:54:09.957Z,19.6
2017-02-21T02:54:50.594Z,19.65
2017-02-21T02:55:31.220Z,19.61
2017-02-21T02:56:11.881Z,19.66
2017-02-21T02:56:52.528Z,19.6
2017-02-21T02:57:33.155Z,19.65
2017-02-21T02:58:13.822Z,19.6
2017-02-21T02:58:54.550Z,19.57
2017-02-21T02:59:35.209Z,19.65
2017-02-21T03:00:15.861Z,19.68
2017-02-21T03:00:56.561Z,19.7
2017-02-21T03:01:37.183Z,19.65
2017-02-21T03:02:17.816Z,19.65
2017-02-21T03:02:58.473Z,19.66
2017-02-21T03:03:39.101Z,19.6
2017-02-21T03:04:19.731Z,19.73
2017-02-21T03:05:00.409Z,19.57
2017-02-21T03:05:41.041Z,19.55
2017-02-21T03:06:21.662Z,19.66
2017-02-21T03:07:02.291Z,19.63
2017-02-21T03:07:42.917Z,19.65
2017-02-21T03:08:23.542Z,19.65
2017-02-21T03:09:04.165Z,19.65
2017-02-21T03:09:44.808Z,19.61
2017-02-21T03:10:25.426Z,19.6
2017-02-21T03:11:06.057Z,19.57
2017-02-21T03:11:46.682Z,19.63
2017-02-21T03:12:27.321Z,19.61
2017-02-21T03:13:08.009Z,19.63
2017-02-21T03:13:48.650Z,19.55
2017-02-21T03:14:29.330Z,19.61
2017-02-21T03:15:09.975Z,19.57
2017-02-21T03:15:50.607Z,19.57
2017-02-21T03:16:31.270Z,19.6
2017-02-21T03:17:12.027Z,19.55
2017-02-21T03:17:52.660Z,19.55
2017-02-21T03:18:33.304Z,19.6
2017-02-21T03:19:14.004Z,19.5
2017-02-21T03:19:54.687Z,19.57
2017-02-21T03:20:35.314Z,19.65
2017-02-21T03:21:15.945Z,19.66
2017-02-21T03:21:56.590Z,19.58
2017-02-21T03:22:37.234Z,19.6
2017-02-21T03:23:17.894Z,19.6
2017-02-21T03:23:58.615Z,19.55
2017-02-21T03:24:39.258Z,19.65
2017-02-21T03:25:19.929Z,19.55
2017-02-21T03:26:00.565Z,19.57
2017-02-21T03:26:41.195Z,19.61
2017-02-21T03:27:21.828Z,19.6
2017-02-21T03:28:02.457Z,19.55
2017-02-21T03:28:43.087Z,19.6
2017-02-21T03:29:23.767Z,19.6
2017-02-21T03:30:04.490Z,19.61
2017-02-21T03:30:45.114Z,19.6
2017-02-21T03:31:25.785Z,19.55
2017-02-21T03:32:06.485Z,19.57
2017-02-21T03:32:47.108Z,19.51
2017-02-21T03:33:27.740Z,19.6
2017-02-21T03:34:08.446Z,19.66
2017-02-21T03:34:49.184Z,19.61
2017-02-21T03:35:29.827Z,19.53
2017-02-21T03:36:10.500Z,19.5
2017-02-21T03:36:51.214Z,19.54
2017-02-21T03:37:31.840Z,19.61
2017-02-21T03:38:12.472Z,19.61
2017-02-21T03:38:53.198Z,19.6
2017-02-21T03:39:33.820Z,19.5
2017-02-21T03:40:14.472Z,19.54
2017-02-21T03:40:55.162Z,19.5
2017-02-21T03:41:35.798Z,19.53
2017-02-21T03:42:16.437Z,19.58
2017-02-21T03:42:57.127Z,19.51
2017-02-21T03:43:37.862Z,19.48
2017-02-21T03:44:18.505Z,19.5
2017-02-21T03:44:59.171Z,19.54
2017-02-21T03:45:39.878Z,19.53
2017-02-21T03:46:20.518Z,19.61
2017-02-21T03:47:01.276Z,19.57
2017-02-21T03:47:42.752Z,19.55
2017-02-21T03:48:23.402Z,19.53
2017-02-21T03:49:04.026Z,19.51
2017-02-21T03:49:44.731Z,19.51
2017-02-21T03:50:25.368Z,19.53
2017-02-21T03:51:06.014Z,19.65
2017-02-21T03:51:46.696Z,19.53
2017-02-21T03:52:27.330Z,19.57
2017-02-21T03:53:07.979Z,19.58
2017-02-21T03:53:48.683Z,19.55
2017-02-21T03:54:29.318Z,19.55
2017-02-21T03:55:09.938Z,19.53
2017-02-21T03:55:50.605Z,19.61
2017-02-21T03:56:31.238Z,19.48
2017-02-21T03:57:11.910Z,19.58
2017-02-21T03:57:52.561Z,19.54
2017-02-21T03:58:33.289Z,19.53
2017-02-21T03:59:13.948Z,19.54
2017-02-21T03:59:54.643Z,19.5
2017-02-21T04:00:35.309Z,19.58
2017-02-21T04:01:15.942Z,19.55
2017-02-21T04:01:56.580Z,19.53
2017-02-21T04:02:37.236Z,19.51
2017-02-21T04:03:17.875Z,19.53
2017-02-21T04:03:58.533Z,19.54
2017-02-21T04:04:39.200Z,19.55
2017-02-21T04:05:19.842Z,19.55
2017-02-21T04:06:00.477Z,19.58
2017-02-21T04:06:41.133Z,19.54
2017-02-21T04:07:21.802Z,19.47
2017-02-21T04:08:02.499Z,19.55
2017-02-21T04:08:43.192Z,19.51
2017-02-21T04:09:23.820Z,19.55
2017-02-21T04:10:04.454Z,19.5
2017-02-21T04:10:45.150Z,19.48
2017-02-21T04:11:25.778Z,19.46
2017-02-21T04:12:06.414Z,19.54
2017-02-21T04:12:47.071Z,19.48
2017-02-21T04:13:27.718Z,19.57
2017-02-21T04:14:08.351Z,19.46
2017-02-21T04:14:49.054Z,19.53
2017-02-21T04:15:29.752Z,19.5
2017-02-21T04:16:10.388Z,19.47
2017-02-21T04:16:51.028Z,19.42
2017-02-21T04:17:31.704Z,19.5
2017-02-21T04:18:12.336Z,19.39
2017-02-21T04:18:52.983Z,19.48
2017-02-21T04:19:33.643Z,19.43
2017-02-21T04:20:14.264Z,19.43
2017-02-21T04:20:54.896Z,19.5
2017-02-21T04:21:35.563Z,19.51
2017-02-21T04:22:16.187Z,19.46
2017-02-21T04:22:56.908Z,19.55
2017-02-21T04:23:37.588Z,19.47
2017-02-21T04:24:18.300Z,19.42
2017-02-21T04:24:58.957Z,19.54
2017-02-21T04:25:39.587Z,19.39
2017-02-21T04:26:20.222Z,19.46
2017-02-21T04:27:00.860Z,19.48
2017-02-21T04:27:41.599Z,19.55
2017-02-21T04:28:22.224Z,19.4
2017-02-21T04:29:02.879Z,19.38
2017-02-21T04:29:43.503Z,19.51
2017-02-21T04:30:24.192Z,19.46
2017-02-21T04:31:04.817Z,19.54
2017-02-21T04:31:45.437Z,19.5
2017-02-21T04:32:26.144Z,19.46
2017-02-21T04:33:06.778Z,19.5
2017-02-21T04:33:47.403Z,19.46
2017-02-21T04:34:28.078Z,19.58
2017-02-21T04:35:08.711Z,19.42
2017-02-21T04:35:49.350Z,19.55
2017-02-21T04:36:29.981Z,19.53
2017-02-21T04:37:10.603Z,19.42
2017-02-21T04:37:51.338Z,19.5
2017-02-21T04:38:31.985Z,19.46
2017-02-21T04:39:12.682Z,19.47
2017-02-21T04:39:53.336Z,19.4
2017-02-21T04:40:34.021Z,19.48
2017-02-21T04:41:14.650Z,19.46
2017-02-21T04:41:55.282Z,19.43
2017-02-21T04:42:35.972Z,19.51
2017-02-21T04:43:16.607Z,19.51
2017-02-21T04:43:57.257Z,19.53
2017-02-21T04:44:37.917Z,19.55
2017-02-21T04:45:18.546Z,19.5
2017-02-21T04:45:59.191Z,19.39
2017-02-21T04:46:39.867Z,19.42
2017-02-21T04:47:20.554Z,19.48
2017-02-21T04:48:01.185Z,19.53
2017-02-21T04:48:41.810Z,19.47
2017-02-21T04:49:22.439Z,19.47
2017-02-21T04:50:03.072Z,19.43
2017-02-21T04:50:43.717Z,19.5
2017-02-21T04:51:24.363Z,19.53
2017-02-21T04:52:05.002Z,19.5
2017-02-21T04:52:45.636Z,19.42
2017-02-21T04:53:26.351Z,19.42
2017-02-21T04:54:06.984Z,19.48
2017-02-21T04:54:47.638Z,19.55
2017-02-21T04:55:28.265Z,19.42
2017-02-21T04:56:08.899Z,19.46
2017-02-21T04:56:49.651Z,19.48
2017-02-21T04:57:30.357Z,19.33
2017-02-21T04:58:11.076Z,19.46
2017-02-21T04:58:51.716Z,19.42
2017-02-21T04:59:32.406Z,19.53
2017-02-21T05:00:13.092Z,19.46
2017-02-21T05:00:53.747Z,19.5
2017-02-21T05:01:34.389Z,19.47
2017-02-21T05:02:15.030Z,19.51
2017-02-21T05:02:55.678Z,19.53
2017-02-21T05:03:36.366Z,19.53
2017-02-21T05:04:17.043Z,19.54
2017-02-21T05:04:57.811Z,19.55
2017-02-21T05:05:38.462Z,19.47
2017-02-21T05:06:19.197Z,19.48
2017-02-21T05:06:59.838Z,19.43
2017-02-21T05:07:40.472Z,19.5
2017-02-21T05:08:21.202Z,19.48
2017-02-21T05:09:01.862Z,19.48
2017-02-21T05:09:42.538Z,19.42
2017-02-21T05:10:23.227Z,19.55
2017-02-21T05:11:03.874Z,19.42
2017-02-21T05:11:44.578Z,19.46
2017-02-21T05:12:25.227Z,19.54
2017-02-21T05:13:05.857Z,19.51
2017-02-21T05:13:46.519Z,19.39
2017-02-21T05:14:27.150Z,19.48
2017-02-21T05:15:07.796Z,19.57
2017-02-21T05:15:48.517Z,19.5
2017-02-21T05:16:29.161Z,19.5
2017-02-21T05:17:09.847Z,19.48
2017-02-21T05:17:50.474Z,19.47
2017-02-21T05:18:31.108Z,19.48
2017-02-21T05:19:11.739Z,19.4
2017-02-21T05:19:52.399Z,19.42
2017-02-21T05:20:33.028Z,19.53
2017-02-21T05:21:13.663Z,19.55
2017-02-21T05:21:54.305Z,19.47
2017-02-21T05:22:34.941Z,19.42
2017-02-21T05:23:15.636Z,19.51
2017-02-21T05:23:56.286Z,19.51
2017-02-21T05:24:36.921Z,19.4
2017-02-21T05:25:17.543Z,19.42
2017-02-21T05:25:58.175Z,19.51
2017-02-21T05:26:38.800Z,19.29
2017-02-21T05:27:19.499Z,19.5
2017-02-21T05:28:00.145Z,19.38
2017-02-21T05:28:40.798Z,19.47
2017-02-21T05:29:21.452Z,19.29
2017-02-21T05:30:02.156Z,19.39
2017-02-21T05:30:42.875Z,19.43
2017-02-21T05:31:23.516Z,19.4
2017-02-21T05:32:04.146Z,19.35
2017-02-21T05:32:44.808Z,19.39
2017-02-21T05:33:25.443Z,19.39
2017-02-21T05:34:06.067Z,19.4
2017-02-21T05:34:46.786Z,19.4
2017-02-21T05:35:27.432Z,19.46
2017-02-21T05:36:08.164Z,19.46
2017-02-21T05:36:48.797Z,19.35
2017-02-21T05:37:29.482Z,19.4
2017-02-21T05:38:10.062Z,19.35
2017-02-21T05:38:50.696Z,19.4
2017-02-21T05:39:31.319Z,19.36
2017-02-21T05:40:12.051Z,19.47
2017-02-21T05:40:52.674Z,19.43
2017-02-21T05:41:33.398Z,19.39
2017-02-21T05:42:14.041Z,19.4
2017-02-21T05:42:54.676Z,19.38
2017-02-21T05:43:35.361Z,19.43
2017-02-21T05:44:15.994Z,19.35
2017-02-21T05:44:56.722Z,19.46
2017-02-21T05:45:37.356Z,19.33
2017-02-21T05:46:17.980Z,19.38
2017-02-21T05:46:58.614Z,19.36
2017-02-21T05:47:39.355Z,19.35
2017-02-21T05:48:19.983Z,19.48
2017-02-21T05:49:00.693Z,19.35
2017-02-21T05:49:41.316Z,19.46
2017-02-21T05:50:21.971Z,19.38
2017-02-21T05:51:02.605Z,19.36
2017-02-21T05:51:43.249Z,19.32
2017-02-21T05:52:23.923Z,19.28
2017-02-21T05:53:04.561Z,19.38
2017-02-21T05:53:45.210Z,19.4
2017-02-21T05:54:25.835Z,19.33
2017-02-21T05:55:06.477Z,19.39
2017-02-21T05:55:47.106Z,19.33
2017-02-21T05:56:27.796Z,19.24
2017-02-21T05:57:08.382Z,19.24
2017-02-21T05:57:49.020Z,19.36
2017-02-21T05:58:29.647Z,19.38
2017-02-21T05:59:10.284Z,19.39
2017-02-21T05:59:50.943Z,19.23
2017-02-21T06:00:31.649Z,19.36
2017-02-21T06:01:12.205Z,19.4
2017-02-21T06:01:52.907Z,19.4
2017-02-21T06:02:33.538Z,19.39
2017-02-21T06:03:14.169Z,19.4
2017-02-21T06:03:54.814Z,19.39
2017-02-21T06:04:35.442Z,19.36
2017-02-21T06:05:16.070Z,19.35
2017-02-21T06:05:56.745Z,19.4
2017-02-21T06:06:37.453Z,19.4
2017-02-21T06:07:18.095Z,19.4
2017-02-21T06:07:58.778Z,19.42
2017-02-21T06:08:39.442Z,19.28
2017-02-21T06:09:20.081Z,19.29
2017-02-21T06:10:00.700Z,19.25
2017-02-21T06:10:41.402Z,19.32
2017-02-21T06:11:22.045Z,19.43
2017-02-21T06:12:02.673Z,19.4
2017-02-21T06:12:43.310Z,19.32
2017-02-21T06:13:23.952Z,19.39
2017-02-21T06:14:04.585Z,19.36
2017-02-21T06:14:45.244Z,19.4
2017-02-21T06:15:25.874Z,19.39
2017-02-21T06:16:06.548Z,19.36
2017-02-21T06:16:47.221Z,19.33
2017-02-21T06:17:27.848Z,19.31
2017-02-21T06:18:08.478Z,19.28
2017-02-21T06:18:49.114Z,19.25
2017-02-21T06:19:29.752Z,19.29
2017-02-21T06:20:10.386Z,19.32
2017-02-21T06:20:51.088Z,19.28
2017-02-21T06:21:31.726Z,19.31
2017-02-21T06:22:12.379Z,19.32
2017-02-21T06:22:53.020Z,19.33
2017-02-21T06:23:33.649Z,19.33
2017-02-21T06:24:14.298Z,19.33
2017-02-21T06:24:55.010Z,19.36
2017-02-21T06:25:35.647Z,19.32
2017-02-21T06:26:16.283Z,19.39
2017-02-21T06:26:56.953Z,19.33
2017-02-21T06:27:37.587Z,19.35
2017-02-21T06:28:18.214Z,19.39
2017-02-21T06:28:58.846Z,19.36
2017-02-21T06:29:39.569Z,19.28
2017-02-21T06:30:20.136Z,19.36
2017-02-21T06:31:00.764Z,19.28
2017-02-21T06:31:41.402Z,19.31
2017-02-21T06:32:22.048Z,19.24
2017-02-21T06:33:02.757Z,19.33
2017-02-21T06:33:43.470Z,19.32
2017-02-21T06:34:24.135Z,19.21
2017-02-21T06:35:04.830Z,19.25
2017-02-21T06:35:45.524Z,19.38
2017-02-21T06:36:26.157Z,19.43
2017-02-21T06:37:06.895Z,19.35
2017-02-21T06:37:47.549Z,19.42
2017-02-21T06:38:28.292Z,19.32
2017-02-21T06:39:08.947Z,19.36
2017-02-21T06:39:49.647Z,19.33
2017-02-21T06:40:30.315Z,19.21
2017-02-21T06:41:10.965Z,19.28
2017-02-21T06:41:51.705Z,19.25
2017-02-21T06:42:32.336Z,19.43
2017-02-21T06:43:13.024Z,19.36
2017-02-21T06:43:53.631Z,19.35
2017-02-21T06:44:34.279Z,19.36
2017-02-21T06:45:14.909Z,19.25
2017-02-21T06:45:55.537Z,19.25
2017-02-21T06:46:36.178Z,19.29
2017-02-21T06:47:16.804Z,19.31
2017-02-21T06:47:57.439Z,19.31
2017-02-21T06:48:38.070Z,19.25
2017-02-21T06:49:18.701Z,19.29
2017-02-21T06:49:59.327Z,19.21
2017-02-21T06:50:40.076Z,19.29
2017-02-21T06:51:20.714Z,19.28
2017-02-21T06:52:01.350Z,19.32
2017-02-21T06:52:41.985Z,19.36
2017-02-21T06:53:22.618Z,19.33
2017-02-21T06:54:03.254Z,19.32
2017-02-21T06:54:43.914Z,19.32
2017-02-21T06:55:24.537Z,19.31
2017-02-21T06:56:05.175Z,19.29
2017-02-21T06:56:45.834Z,19.28
2017-02-21T06:57:26.566Z,19.35
2017-02-21T06:58:07.203Z,19.33
2017-02-21T06:58:47.886Z,19.36
2017-02-21T06:59:28.571Z,19.29
2017-02-21T07:00:09.202Z,19.32
2017-02-21T07:00:49.847Z,19.23
2017-02-21T07:01:30.536Z,19.24
2017-02-21T07:02:11.165Z,19.36
2017-02-21T07:02:51.802Z,19.2
2017-02-21T07:03:32.466Z,19.35
2017-02-21T07:04:13.111Z,19.35
2017-02-21T07:04:53.733Z,19.35
2017-02-21T07:05:34.395Z,19.36
2017-02-21T07:06:15.021Z,19.36
2017-02-21T07:06:55.658Z,19.36
2017-02-21T07:07:36.354Z,19.28
2017-02-21T07:08:16.986Z,19.35
2017-02-21T07:08:57.691Z,19.33
2017-02-21T07:09:38.336Z,19.33
2017-02-21T07:10:18.990Z,19.31
2017-02-21T07:10:59.639Z,19.28
2017-02-21T07:11:40.271Z,19.33
2017-02-21T07:12:21.009Z,19.28
2017-02-21T07:13:01.660Z,19.29
2017-02-21T07:13:42.939Z,19.28
2017-02-21T07:14:23.574Z,19.24
2017-02-21T07:15:04.211Z,19.29
2017-02-21T07:15:44.866Z,19.31
2017-02-21T07:16:25.493Z,19.31
2017-02-21T07:17:06.122Z,19.21
2017-02-21T07:17:46.794Z,19.31
2017-02-21T07:18:27.434Z,19.25
2017-02-21T07:19:08.081Z,19.18
2017-02-21T07:19:48.728Z,19.23
2017-02-21T07:20:29.352Z,19.21
2017-02-21T07:21:11.011Z,19.29
2017-02-21T07:21:51.639Z,19.21
2017-02-21T07:22:32.264Z,19.28
2017-02-21T07:23:12.988Z,19.25
2017-02-21T07:23:53.720Z,19.28
2017-02-21T07:24:34.353Z,19.25
2017-02-21T07:25:15.052Z,19.31
2017-02-21T07:25:55.694Z,19.25
2017-02-21T07:26:36.355Z,19.24
2017-02-21T07:27:16.978Z,19.24
2017-02-21T07:27:57.689Z,19.35
2017-02-21T07:28:38.327Z,19.28
2017-02-21T07:29:18.969Z,19.31
2017-02-21T07:29:59.613Z,19.28
2017-02-21T07:30:40.255Z,19.29
2017-02-21T07:31:20.891Z,19.25
2017-02-21T07:32:01.572Z,19.29
2017-02-21T07:32:42.237Z,19.24
2017-02-21T07:33:22.864Z,19.29
2017-02-21T07:34:03.577Z,19.28
2017-02-21T07:34:44.203Z,19.25
2017-02-21T07:35:24.834Z,19.25
2017-02-21T07:36:05.488Z,19.31
2017-02-21T07:36:46.111Z,19.24
2017-02-21T07:37:26.746Z,19.25
2017-02-21T07:38:07.445Z,19.23
2017-02-21T07:38:48.701Z,19.29
2017-02-21T07:39:29.364Z,19.31
2017-02-21T07:40:10.033Z,19.31
2017-02-21T07:40:50.676Z,19.31
2017-02-21T07:41:31.297Z,19.28
2017-02-21T07:42:11.995Z,19.17
2017-02-21T07:42:52.634Z,19.28
2017-02-21T07:43:33.270Z,19.24
2017-02-21T07:44:13.992Z,19.28
2017-02-21T07:44:54.710Z,19.24
2017-02-21T07:45:35.261Z,19.25
2017-02-21T07:46:15.917Z,19.21
2017-02-21T07:46:56.547Z,19.32
2017-02-21T07:47:37.185Z,19.29
2017-02-21T07:48:17.819Z,19.24
2017-02-21T07:48:58.453Z,19.24
2017-02-21T07:49:39.085Z,19.24
2017-02-21T07:50:19.775Z,19.18
2017-02-21T07:51:00.458Z,19.29
2017-02-21T07:51:41.023Z,19.28
2017-02-21T07:52:21.696Z,19.25
2017-02-21T07:53:02.389Z,19.18
2017-02-21T07:53:42.974Z,19.28
2017-02-21T07:54:23.666Z,19.28
2017-02-21T07:55:04.301Z,19.15
2017-02-21T07:55:44.919Z,19.18
2017-02-21T07:56:25.561Z,19.17
2017-02-21T07:57:06.250Z,19.23
2017-02-21T07:57:46.835Z,19.28
2017-02-21T07:58:27.528Z,19.24
2017-02-21T07:59:08.156Z,19.17
2017-02-21T07:59:48.797Z,19.24
2017-02-21T08:00:29.421Z,19.21
2017-02-21T08:01:10.059Z,19.2
2017-02-21T08:01:50.692Z,19.17
2017-02-21T08:02:31.318Z,19.21
2017-02-21T08:03:12.009Z,19.23
2017-02-21T08:03:52.582Z,19.25
2017-02-21T08:04:33.298Z,19.2
2017-02-21T08:05:13.933Z,19.2
2017-02-21T08:05:54.575Z,19.18
2017-02-21T08:06:35.246Z,19.21
2017-02-21T08:07:15.968Z,19.29
2017-02-21T08:07:56.589Z,19.18
2017-02-21T08:08:37.265Z,19.18
2017-02-21T08:09:17.972Z,19.15
2017-02-21T08:09:58.601Z,19.17
2017-02-21T08:10:39.268Z,19.24
2017-02-21T08:11:20.008Z,19.17
2017-02-21T08:12:00.731Z,19.23
2017-02-21T08:12:41.397Z,19.2
2017-02-21T08:13:22.062Z,19.17
2017-02-21T08:14:02.788Z,19.08
2017-02-21T08:14:43.417Z,19.2
2017-02-21T08:15:24.074Z,19.18
2017-02-21T08:16:04.728Z,19.15
2017-02-21T08:16:45.356Z,19.18
2017-02-21T08:17:26.074Z,19.18
2017-02-21T08:18:06.709Z,19.15
2017-02-21T08:18:47.366Z,19.25
2017-02-21T08:19:28.048Z,19.23
2017-02-21T08:20:08.692Z,19.2
2017-02-21T08:20:49.412Z,19.17
2017-02-21T08:21:30.057Z,19.17
2017-02-21T08:22:10.713Z,19.14
2017-02-21T08:22:51.353Z,19.15
2017-02-21T08:23:31.987Z,19.14
2017-02-21T08:24:12.650Z,19.17
2017-02-21T08:24:53.322Z,19.21
2017-02-21T08:25:33.967Z,19.14
2017-02-21T08:26:14.607Z,19.17
2017-02-21T08:26:55.291Z,19.23
2017-02-21T08:27:35.925Z,19.2
2017-02-21T08:28:16.557Z,19.17
2017-02-21T08:28:57.289Z,19.2
2017-02-21T08:29:37.936Z,19.23
2017-02-21T08:30:18.588Z,19.2
2017-02-21T08:30:59.238Z,19.2
2017-02-21T08:31:39.877Z,19.14
2017-02-21T08:32:20.502Z,19.21
2017-02-21T08:33:01.161Z,19.21
2017-02-21T08:33:41.878Z,19.1
2017-02-21T08:34:22.431Z,19.1
2017-02-21T08:35:03.154Z,19.2
2017-02-21T08:35:43.847Z,19.2
2017-02-21T08:36:24.494Z,19.17
2017-02-21T08:37:05.213Z,19.21
2017-02-21T08:37:45.846Z,19.14
2017-02-21T08:38:26.476Z,19.13
2017-02-21T08:39:07.111Z,19.08
2017-02-21T08:39:47.795Z,19.08
2017-02-21T08:40:28.429Z,19.14
2017-02-21T08:41:09.063Z,19.15
2017-02-21T08:41:49.748Z,19.1
2017-02-21T08:42:30.377Z,19.21
2017-02-21T08:43:11.007Z,19.17
2017-02-21T08:43:51.723Z,19.06
2017-02-21T08:44:32.357Z,19.17
2017-02-21T08:45:13.002Z,19.14
2017-02-21T08:45:53.657Z,19.15